createdAt,value
2023-01-12T00:00:09.667Z,7.14
2023-01-12T00:02:39.107Z,7.14
2023-01-12T00:05:06.252Z,7.01
2023-01-12T00:07:32.732Z,7.01
2023-01-12T00:09:59.390Z,7.06
2023-01-12T00:12:25.882Z,7.07
2023-01-12T00:14:52.340Z,7.39
2023-01-12T00:17:19.063Z,7.51
2023-01-12T00:19:45.515Z,7.33
2023-01-12T00:22:12.486Z,7.16
2023-01-12T00:24:45.848Z,7.09
2023-01-12T00:27:17.708Z,7.14
2023-01-12T00:29:44.190Z,7.10
2023-01-12T00:32:15.546Z,7.01
2023-01-12T00:34:42.400Z,7.24
2023-01-12T00:37:09.243Z,7.38
2023-01-12T00:39:37.431Z,7.33
2023-01-12T00:42:04.968Z,7.31
2023-01-12T00:44:33.683Z,7.21
2023-01-12T00:47:10.370Z,7.32
2023-01-12T00:49:37.891Z,7.11
2023-01-12T00:52:05.788Z,7.33
2023-01-12T00:54:33.728Z,7.21
2023-01-12T00:57:01.276Z,7.34
2023-01-12T00:59:28.626Z,7.40
2023-01-12T01:01:56.804Z,7.43
2023-01-12T01:04:26.146Z,7.39
2023-01-12T01:06:52.669Z,7.35
2023-01-12T01:09:19.532Z,6.79
2023-01-12T01:11:46.114Z,6.91
2023-01-12T01:14:12.949Z,6.93
2023-01-12T01:16:39.498Z,6.87
2023-01-12T01:19:06.036Z,6.79
2023-01-12T01:21:33.419Z,6.91
2023-01-12T01:24:00.440Z,6.89
2023-01-12T01:26:27.024Z,7.08
2023-01-12T01:28:53.522Z,7.03
2023-01-12T01:31:22.660Z,7.02
2023-01-12T01:33:49.956Z,7.15
2023-01-12T01:36:17.330Z,6.96
2023-01-12T01:38:45.161Z,6.92
2023-01-12T01:41:20.628Z,6.87
2023-01-12T01:43:59.112Z,6.84
2023-01-12T01:46:34.705Z,6.61
2023-01-12T01:49:14.105Z,6.57
2023-01-12T01:51:41.425Z,6.63
2023-01-12T01:54:07.919Z,6.57
2023-01-12T01:56:36.778Z,6.56
2023-01-12T01:59:08.330Z,6.62
2023-01-12T02:01:35.474Z,6.68
2023-01-12T02:04:02.711Z,6.62
2023-01-12T02:06:29.399Z,6.77
2023-01-12T02:09:02.079Z,6.98
2023-01-12T02:11:28.791Z,7.01
2023-01-12T02:13:55.325Z,7.13
2023-01-12T02:16:27.848Z,7.31
2023-01-12T02:19:45.552Z,7.06
2023-01-12T02:22:50.308Z,7.09
2023-01-12T02:25:36.780Z,7.15
2023-01-12T02:28:31.237Z,7.33
2023-01-12T02:31:20.437Z,7.47
2023-01-12T02:33:59.444Z,7.71
2023-01-12T02:36:32.222Z,7.77
2023-01-12T02:39:21.773Z,8.02
2023-01-12T02:42:05.396Z,8.13
2023-01-12T02:45:04.340Z,8.05
2023-01-12T02:47:51.582Z,8.19
2023-01-12T02:50:28.422Z,8.10
2023-01-12T02:52:59.809Z,8.09
2023-01-12T02:55:27.309Z,7.88
2023-01-12T02:57:55.900Z,7.86
2023-01-12T03:00:22.565Z,7.64
2023-01-12T03:02:49.068Z,7.11
2023-01-12T03:05:15.669Z,6.83
2023-01-12T03:07:55.729Z,6.66
2023-01-12T03:10:41.947Z,6.59
2023-01-12T03:13:11.642Z,6.45
2023-01-12T03:15:41.366Z,6.44
2023-01-12T03:18:34.832Z,6.52
2023-01-12T03:21:07.672Z,6.62
2023-01-12T03:23:40.490Z,6.38
2023-01-12T03:26:08.973Z,6.12
2023-01-12T03:28:36.875Z,6.16
2023-01-12T03:31:07.374Z,5.92
2023-01-12T03:33:33.906Z,6.09
2023-01-12T03:36:20.326Z,6.23
2023-01-12T03:39:03.051Z,6.44
2023-01-12T03:41:43.714Z,6.35
2023-01-12T03:44:18.723Z,6.44
2023-01-12T03:46:52.150Z,6.41
2023-01-12T03:49:33.171Z,6.24
2023-01-12T03:52:02.726Z,6.03
2023-01-12T03:54:31.716Z,5.82
2023-01-12T03:56:58.317Z,5.71
2023-01-12T03:59:24.856Z,5.83
2023-01-12T04:01:51.464Z,5.83
2023-01-12T04:04:18.146Z,5.82
2023-01-12T04:06:44.656Z,5.96
2023-01-12T04:09:11.287Z,5.93
2023-01-12T04:11:37.775Z,5.76
2023-01-12T04:14:04.250Z,5.94
2023-01-12T04:16:30.959Z,6.11
2023-01-12T04:18:57.629Z,6.17
2023-01-12T04:21:24.534Z,6.41
2023-01-12T04:23:51.128Z,6.62
2023-01-12T04:26:17.801Z,6.63
2023-01-12T04:28:44.333Z,6.75
2023-01-12T04:31:10.832Z,6.95
2023-01-12T04:33:37.308Z,7.16
2023-01-12T04:36:03.912Z,7.27
2023-01-12T04:38:30.513Z,7.51
2023-01-12T04:40:56.993Z,7.32
2023-01-12T04:43:23.475Z,7.28
2023-01-12T04:45:50.059Z,6.87
2023-01-12T04:48:16.591Z,6.78
2023-01-12T04:50:43.090Z,6.78
2023-01-12T04:53:11.242Z,6.62
2023-01-12T04:55:40.607Z,6.82
2023-01-12T04:58:07.669Z,6.80
2023-01-12T05:00:34.687Z,6.51
2023-01-12T05:03:01.499Z,6.30
2023-01-12T05:05:29.191Z,6.30
2023-01-12T05:07:55.926Z,6.08
2023-01-12T05:10:22.460Z,5.95
2023-01-12T05:12:49.052Z,5.80
2023-01-12T05:15:15.645Z,5.65
2023-01-12T05:17:42.101Z,5.72
2023-01-12T05:20:09.216Z,5.60
2023-01-12T05:22:35.705Z,5.71
2023-01-12T05:25:02.319Z,5.74
2023-01-12T05:27:28.981Z,5.97
2023-01-12T05:29:55.559Z,6.00
2023-01-12T05:32:22.006Z,6.08
2023-01-12T05:34:48.618Z,6.10
2023-01-12T05:37:15.071Z,6.31
2023-01-12T05:39:41.600Z,6.38
2023-01-12T05:42:08.377Z,6.35
2023-01-12T05:44:35.074Z,6.03
2023-01-12T05:47:01.613Z,6.16
2023-01-12T05:49:28.240Z,6.23
2023-01-12T05:51:54.722Z,6.10
2023-01-12T05:54:21.194Z,5.97
2023-01-12T05:56:49.809Z,5.89
2023-01-12T05:59:16.502Z,5.83
2023-01-12T06:01:43.010Z,5.91
2023-01-12T06:04:10.151Z,6.03
2023-01-12T06:06:39.118Z,5.98
2023-01-12T06:09:05.641Z,5.89
2023-01-12T06:11:32.150Z,5.79
2023-01-12T06:14:02.125Z,5.65
2023-01-12T06:16:29.180Z,5.58
2023-01-12T06:18:56.369Z,5.70
2023-01-12T06:21:23.709Z,5.84
2023-01-12T06:23:50.241Z,5.98
2023-01-12T06:26:16.725Z,6.16
2023-01-12T06:28:43.221Z,6.35
2023-01-12T06:31:11.921Z,6.27
2023-01-12T06:33:38.629Z,6.34
2023-01-12T06:36:08.757Z,6.40
2023-01-12T06:38:36.098Z,6.46
2023-01-12T06:41:07.232Z,6.44
2023-01-12T06:43:34.183Z,6.17
2023-01-12T06:46:00.930Z,6.25
2023-01-12T06:48:38.881Z,6.17
2023-01-12T06:51:06.187Z,6.11
2023-01-12T06:53:32.877Z,6.21
2023-01-12T06:55:59.364Z,6.28
2023-01-12T06:58:26.094Z,6.20
2023-01-12T07:00:52.716Z,6.38
2023-01-12T07:03:20.147Z,6.48
2023-01-12T07:05:46.730Z,6.53
2023-01-12T07:08:13.310Z,6.57
2023-01-12T07:10:39.867Z,6.48
2023-01-12T07:13:06.388Z,6.47
2023-01-12T07:15:32.980Z,6.60
2023-01-12T07:18:04.628Z,6.59
2023-01-12T07:20:34.792Z,6.35
2023-01-12T07:23:01.476Z,6.08
2023-01-12T07:25:28.054Z,6.05
2023-01-12T07:27:56.277Z,6.20
2023-01-12T07:30:24.119Z,6.33
2023-01-12T07:32:50.661Z,6.49
2023-01-12T07:35:17.607Z,6.42
2023-01-12T07:37:51.137Z,6.39
2023-01-12T07:40:18.102Z,6.09
2023-01-12T07:42:45.901Z,6.20
2023-01-12T07:45:12.800Z,6.27
2023-01-12T07:47:39.735Z,6.12
2023-01-12T07:50:06.816Z,6.03
2023-01-12T07:52:33.317Z,6.03
2023-01-12T07:54:59.819Z,5.92
2023-01-12T07:57:26.380Z,6.25
2023-01-12T07:59:52.989Z,6.27
2023-01-12T08:02:22.406Z,6.44
2023-01-12T08:04:48.930Z,6.38
2023-01-12T08:07:15.456Z,6.26
2023-01-12T08:09:42.075Z,6.28
2023-01-12T08:12:08.713Z,6.26
2023-01-12T08:14:36.645Z,6.30
2023-01-12T08:17:03.899Z,6.44
2023-01-12T08:19:35.142Z,6.58
2023-01-12T08:22:01.755Z,6.53
2023-01-12T08:24:32.355Z,6.46
2023-01-12T08:27:00.522Z,6.55
2023-01-12T08:29:29.897Z,6.45
2023-01-12T08:31:58.439Z,6.38
2023-01-12T08:34:24.929Z,6.59
2023-01-12T08:36:51.622Z,6.47
2023-01-12T08:39:18.146Z,6.78
2023-01-12T08:41:44.707Z,7.03
2023-01-12T08:44:11.252Z,7.20
2023-01-12T08:46:38.886Z,7.09
2023-01-12T08:49:10.446Z,7.14
2023-01-12T08:51:37.381Z,7.26
2023-01-12T08:54:06.978Z,7.48
2023-01-12T08:56:34.169Z,7.48
2023-01-12T08:59:01.338Z,7.54
2023-01-12T09:01:27.994Z,7.49
2023-01-12T09:03:56.549Z,7.49
2023-01-12T09:06:29.085Z,7.30
2023-01-12T09:09:00.238Z,7.38
2023-01-12T09:11:28.415Z,7.60
2023-01-12T09:13:55.294Z,7.83
2023-01-12T09:16:23.525Z,7.86
2023-01-12T09:18:50.197Z,7.79
2023-01-12T09:21:19.022Z,7.82
2023-01-12T09:23:46.261Z,7.74
2023-01-12T09:26:27.709Z,7.71
2023-01-12T09:28:54.181Z,7.91
2023-01-12T09:31:22.564Z,7.97
2023-01-12T09:33:50.029Z,8.29
2023-01-12T09:36:21.977Z,8.39
2023-01-12T09:38:49.012Z,7.87
2023-01-12T09:41:45.958Z,7.70
2023-01-12T09:44:18.082Z,7.64
2023-01-12T09:46:44.636Z,7.51
2023-01-12T09:49:11.306Z,7.68
2023-01-12T09:51:45.183Z,7.72
2023-01-12T09:54:11.755Z,7.90
2023-01-12T09:56:44.589Z,8.05
2023-01-12T09:59:53.265Z,8.15
2023-01-12T10:02:19.892Z,8.54
2023-01-12T10:04:48.257Z,8.73
2023-01-12T10:07:16.427Z,8.61
2023-01-12T10:09:43.031Z,8.47
2023-01-12T10:12:39.159Z,8.64
2023-01-12T10:15:20.825Z,8.79
2023-01-12T10:17:55.265Z,8.98
2023-01-12T10:20:26.970Z,9.13
2023-01-12T10:23:19.873Z,9.41
2023-01-12T10:25:51.827Z,9.24
2023-01-12T10:28:18.546Z,9.20
2023-01-12T10:30:45.542Z,9.31
2023-01-12T10:33:17.852Z,9.52
2023-01-12T10:35:52.760Z,9.23
2023-01-12T10:38:22.281Z,9.02
2023-01-12T10:41:05.746Z,8.94
2023-01-12T10:43:32.296Z,9.10
2023-01-12T10:46:09.195Z,9.26
2023-01-12T10:48:35.829Z,9.32
2023-01-12T10:51:05.137Z,8.92
2023-01-12T10:53:38.280Z,8.90
2023-01-12T10:56:23.414Z,8.76
2023-01-12T10:58:59.600Z,8.78
2023-01-12T11:01:26.459Z,8.50
2023-01-12T11:04:04.306Z,8.27
2023-01-12T11:06:30.825Z,8.52
2023-01-12T11:08:57.489Z,8.63
2023-01-12T11:11:32.718Z,8.85
2023-01-12T11:14:05.796Z,8.69
2023-01-12T11:16:34.950Z,8.70
2023-01-12T11:19:19.178Z,8.61
2023-01-12T11:21:50.456Z,8.80
2023-01-12T11:24:40.607Z,9.06
2023-01-12T11:27:24.481Z,9.04
2023-01-12T11:30:00.614Z,8.80
2023-01-12T11:32:32.291Z,8.69
2023-01-12T11:35:21.738Z,8.77
2023-01-12T11:37:48.528Z,8.88
2023-01-12T11:40:31.366Z,8.84
2023-01-12T11:43:16.165Z,8.84
2023-01-12T11:45:55.155Z,8.83
2023-01-12T11:48:37.899Z,8.90
2023-01-12T11:51:04.609Z,8.85
2023-01-12T11:53:31.203Z,9.10
2023-01-12T11:56:16.093Z,9.49
2023-01-12T11:59:06.747Z,9.24
2023-01-12T12:01:36.553Z,9.65
2023-01-12T12:04:33.272Z,9.88
2023-01-12T12:07:16.622Z,10.13
2023-01-12T12:09:52.268Z,10.20
2023-01-12T12:12:43.849Z,10.24
2023-01-12T12:15:29.104Z,10.21
2023-01-12T12:18:16.844Z,10.18
2023-01-12T12:20:56.330Z,10.31
2023-01-12T12:23:32.304Z,10.44
2023-01-12T12:26:17.010Z,10.34
2023-01-12T12:28:53.984Z,10.53
2023-01-12T12:31:28.883Z,10.60
2023-01-12T12:34:28.790Z,10.71
2023-01-12T12:37:10.456Z,10.37
2023-01-12T12:40:05.074Z,10.60
2023-01-12T12:43:04.062Z,10.76
2023-01-12T12:45:43.227Z,10.63
2023-01-12T12:48:18.314Z,10.78
2023-01-12T12:51:07.729Z,10.98
2023-01-12T12:53:34.158Z,11.07
2023-01-12T12:56:06.030Z,11.23
2023-01-12T12:58:53.224Z,11.00
2023-01-12T13:01:19.915Z,11.26
2023-01-12T13:03:50.635Z,11.19
2023-01-12T13:06:24.712Z,11.01
2023-01-12T13:08:55.471Z,10.92
2023-01-12T13:12:04.827Z,11.02
2023-01-12T13:14:34.635Z,11.01
2023-01-12T13:17:08.596Z,10.85
2023-01-12T13:19:39.326Z,11.01
2023-01-12T13:22:39.896Z,11.16
2023-01-12T13:25:18.593Z,10.96
2023-01-12T13:28:09.889Z,10.87
2023-01-12T13:30:39.283Z,10.65
2023-01-12T13:33:14.952Z,10.73
2023-01-12T13:35:41.376Z,10.78
2023-01-12T13:38:28.661Z,10.68
2023-01-12T13:41:13.940Z,10.44
2023-01-12T13:43:43.488Z,10.43
2023-01-12T13:46:15.935Z,10.48
2023-01-12T13:48:45.871Z,10.72
2023-01-12T13:51:34.291Z,10.88
2023-01-12T13:54:02.035Z,11.01
2023-01-12T13:56:28.580Z,11.02
2023-01-12T13:59:01.660Z,11.13
2023-01-12T14:01:33.036Z,11.14
2023-01-12T14:04:14.572Z,11.06
2023-01-12T14:06:59.519Z,10.81
2023-01-12T14:10:06.778Z,10.59
2023-01-12T14:12:52.610Z,10.46
2023-01-12T14:15:48.108Z,10.17
2023-01-12T14:18:17.124Z,10.22
2023-01-12T14:20:58.477Z,10.02
2023-01-12T14:23:27.737Z,10.05
2023-01-12T14:26:09.411Z,10.19
2023-01-12T14:28:36.982Z,10.28
2023-01-12T14:31:05.270Z,10.30
2023-01-12T14:33:37.181Z,9.94
2023-01-12T14:36:09.096Z,10.28
2023-01-12T14:38:39.862Z,10.36
2023-01-12T14:41:08.734Z,10.50
2023-01-12T14:43:35.555Z,10.33
2023-01-12T14:46:05.923Z,10.33
2023-01-12T14:48:35.790Z,10.11
2023-01-12T14:51:13.901Z,10.03
2023-01-12T14:53:42.414Z,9.29
2023-01-12T14:56:16.871Z,9.37
2023-01-12T14:58:45.153Z,9.25
2023-01-12T15:01:12.272Z,9.15
2023-01-12T15:03:43.811Z,9.43
2023-01-12T15:06:16.264Z,9.71
2023-01-12T15:08:55.092Z,9.97
2023-01-12T15:11:35.567Z,10.02
2023-01-12T15:14:04.545Z,10.17
2023-01-12T15:16:31.140Z,9.95
2023-01-12T15:18:57.630Z,10.00
2023-01-12T15:21:24.853Z,10.02
2023-01-12T15:23:51.347Z,9.75
2023-01-12T15:26:18.778Z,10.02
2023-01-12T15:28:45.777Z,9.87
2023-01-12T15:31:17.153Z,9.52
2023-01-12T15:33:43.792Z,9.48
2023-01-12T15:36:11.449Z,9.74
2023-01-12T15:38:37.934Z,9.80
2023-01-12T15:41:04.821Z,9.74
2023-01-12T15:43:31.395Z,9.84
2023-01-12T15:45:57.928Z,9.84
2023-01-12T15:48:24.478Z,9.88
2023-01-12T15:50:50.999Z,9.90
2023-01-12T15:53:22.452Z,9.27
2023-01-12T15:55:49.416Z,9.40
2023-01-12T15:58:16.000Z,9.37
2023-01-12T16:00:45.858Z,9.47
2023-01-12T16:03:28.950Z,9.38
2023-01-12T16:05:59.387Z,9.36
2023-01-12T16:08:25.876Z,9.35
2023-01-12T16:10:52.710Z,9.21
2023-01-12T16:13:19.207Z,9.00
2023-01-12T16:15:45.714Z,9.11
2023-01-12T16:18:12.303Z,9.08
2023-01-12T16:20:38.877Z,8.75
2023-01-12T16:23:05.357Z,8.46
2023-01-12T16:25:32.103Z,8.39
2023-01-12T16:27:58.742Z,8.62
2023-01-12T16:30:25.313Z,8.61
2023-01-12T16:32:51.857Z,8.33
2023-01-12T16:35:18.367Z,8.38
2023-01-12T16:37:45.006Z,8.79
2023-01-12T16:40:12.194Z,9.12
2023-01-12T16:42:41.169Z,9.07
2023-01-12T16:45:08.069Z,9.14
2023-01-12T16:47:34.624Z,9.39
2023-01-12T16:50:01.164Z,9.52
2023-01-12T16:52:28.050Z,9.54
2023-01-12T16:54:54.563Z,9.60
2023-01-12T16:57:21.081Z,9.52
2023-01-12T16:59:47.572Z,9.61
2023-01-12T17:02:16.601Z,9.39
2023-01-12T17:04:43.683Z,9.39
2023-01-12T17:07:10.691Z,9.32
2023-01-12T17:09:38.683Z,9.45
2023-01-12T17:12:05.887Z,9.52
2023-01-12T17:14:32.998Z,9.57
2023-01-12T17:17:04.566Z,8.99
2023-01-12T17:19:32.899Z,8.93
2023-01-12T17:21:59.500Z,9.20
2023-01-12T17:24:26.137Z,9.12
2023-01-12T17:26:53.683Z,8.54
2023-01-12T17:29:21.692Z,8.71
2023-01-12T17:31:49.208Z,8.91
2023-01-12T17:34:16.135Z,8.97
2023-01-12T17:36:45.440Z,9.19
2023-01-12T17:39:12.215Z,9.32
2023-01-12T17:41:39.102Z,9.37
2023-01-12T17:44:05.864Z,9.39
2023-01-12T17:46:33.309Z,9.53
2023-01-12T17:49:01.286Z,9.52
2023-01-12T17:51:29.726Z,9.46
2023-01-12T17:53:57.922Z,9.10
2023-01-12T17:56:25.024Z,8.98
2023-01-12T17:58:55.057Z,9.18
2023-01-12T18:01:23.436Z,9.31
2023-01-12T18:03:52.992Z,9.23
2023-01-12T18:06:26.497Z,9.26
2023-01-12T18:08:54.865Z,9.23
2023-01-12T18:11:22.504Z,9.34
2023-01-12T18:13:48.999Z,9.19
2023-01-12T18:16:15.765Z,8.95
2023-01-12T18:18:42.694Z,8.75
2023-01-12T18:21:18.622Z,9.02
2023-01-12T18:23:45.165Z,8.83
2023-01-12T18:26:33.573Z,8.45
2023-01-12T18:29:01.194Z,8.22
2023-01-12T18:31:29.560Z,8.08
2023-01-12T18:33:57.048Z,8.03
2023-01-12T18:36:24.649Z,7.97
2023-01-12T18:38:52.253Z,7.82
2023-01-12T18:41:19.911Z,7.88
2023-01-12T18:43:46.758Z,8.02
2023-01-12T18:46:13.266Z,8.22
2023-01-12T18:48:39.793Z,8.40
2023-01-12T18:51:06.314Z,8.65
2023-01-12T18:53:32.824Z,8.74
2023-01-12T18:56:02.204Z,8.47
2023-01-12T18:58:31.444Z,8.20
2023-01-12T19:00:59.771Z,8.24
2023-01-12T19:03:26.281Z,7.99
2023-01-12T19:05:53.025Z,8.05
2023-01-12T19:08:19.513Z,7.99
2023-01-12T19:10:46.022Z,8.04
2023-01-12T19:13:12.653Z,8.28
2023-01-12T19:15:40.372Z,8.34
2023-01-12T19:18:07.524Z,8.54
2023-01-12T19:20:34.010Z,8.71
2023-01-12T19:23:00.579Z,8.69
2023-01-12T19:25:27.734Z,8.84
2023-01-12T19:27:54.232Z,8.96
2023-01-12T19:30:21.020Z,8.89
2023-01-12T19:32:47.588Z,8.85
2023-01-12T19:35:14.064Z,8.90
2023-01-12T19:37:46.462Z,8.95
2023-01-12T19:40:13.133Z,9.02
2023-01-12T19:42:39.647Z,8.74
2023-01-12T19:45:06.924Z,8.30
2023-01-12T19:47:33.776Z,8.09
2023-01-12T19:50:01.235Z,8.12
2023-01-12T19:52:27.795Z,7.90
2023-01-12T19:54:54.415Z,7.76
2023-01-12T19:57:20.899Z,7.59
2023-01-12T19:59:47.394Z,7.67
2023-01-12T20:02:14.652Z,7.84
2023-01-12T20:04:42.957Z,7.84
2023-01-12T20:07:10.079Z,7.68
2023-01-12T20:09:36.595Z,7.42
2023-01-12T20:12:04.633Z,7.14
2023-01-12T20:14:31.711Z,7.35
2023-01-12T20:16:58.270Z,7.36
2023-01-12T20:19:24.767Z,7.40
2023-01-12T20:21:51.250Z,7.40
2023-01-12T20:24:17.738Z,7.72
2023-01-12T20:26:44.276Z,7.87
2023-01-12T20:29:10.852Z,8.11
2023-01-12T20:31:37.510Z,8.31
2023-01-12T20:34:04.057Z,8.29
2023-01-12T20:36:30.583Z,8.40
2023-01-12T20:38:58.278Z,8.48
2023-01-12T20:41:24.882Z,8.31
2023-01-12T20:43:51.373Z,8.40
2023-01-12T20:46:17.996Z,8.45
2023-01-12T20:48:44.638Z,8.48
2023-01-12T20:51:13.620Z,8.33
2023-01-12T20:53:40.878Z,8.32
2023-01-12T20:56:09.264Z,8.49
2023-01-12T20:58:36.221Z,8.43
2023-01-12T21:01:08.521Z,7.84
2023-01-12T21:03:35.277Z,7.98
2023-01-12T21:06:01.817Z,7.81
2023-01-12T21:08:28.417Z,7.97
2023-01-12T21:10:54.910Z,8.15
2023-01-12T21:13:21.728Z,8.07
2023-01-12T21:15:48.324Z,7.97
2023-01-12T21:18:14.860Z,7.98
2023-01-12T21:20:42.522Z,7.79
2023-01-12T21:23:09.835Z,7.60
2023-01-12T21:25:41.343Z,7.50
2023-01-12T21:28:07.950Z,7.53
2023-01-12T21:30:34.425Z,7.45
2023-01-12T21:33:03.280Z,7.22
2023-01-12T21:35:29.816Z,7.00
2023-01-12T21:37:56.357Z,6.78
2023-01-12T21:40:22.978Z,6.80
2023-01-12T21:42:49.527Z,6.81
2023-01-12T21:45:16.045Z,6.75
2023-01-12T21:47:42.603Z,6.76
2023-01-12T21:50:09.860Z,6.79
2023-01-12T21:52:36.336Z,6.98
2023-01-12T21:55:02.869Z,7.00
2023-01-12T21:57:29.375Z,7.22
2023-01-12T21:59:57.173Z,7.41
2023-01-12T22:02:23.672Z,7.44
2023-01-12T22:04:53.155Z,7.58
2023-01-12T22:07:19.642Z,7.55
2023-01-12T22:09:46.297Z,7.78
2023-01-12T22:12:12.855Z,7.81
2023-01-12T22:14:39.405Z,7.84
2023-01-12T22:17:05.957Z,7.97
2023-01-12T22:19:32.671Z,7.91
2023-01-12T22:21:59.176Z,7.67
2023-01-12T22:24:25.887Z,7.42
2023-01-12T22:26:53.031Z,7.26
2023-01-12T22:29:19.549Z,7.30
2023-01-12T22:31:46.126Z,7.11
2023-01-12T22:34:12.803Z,7.12
2023-01-12T22:36:39.526Z,7.10
2023-01-12T22:39:06.108Z,7.15
2023-01-12T22:41:35.133Z,6.89
2023-01-12T22:44:01.597Z,6.68
2023-01-12T22:46:28.085Z,6.46
2023-01-12T22:48:57.910Z,6.41
2023-01-12T22:51:25.946Z,6.52
2023-01-12T22:53:53.747Z,6.65
2023-01-12T22:56:20.651Z,6.87
2023-01-12T22:58:48.146Z,6.86
2023-01-12T23:01:16.037Z,6.72
2023-01-12T23:03:42.687Z,6.71
2023-01-12T23:06:13.884Z,6.56
2023-01-12T23:08:41.481Z,6.76
2023-01-12T23:11:13.601Z,7.00
2023-01-12T23:13:41.704Z,6.93
2023-01-12T23:16:09.909Z,7.01
2023-01-12T23:18:37.834Z,7.15
2023-01-12T23:21:16.100Z,7.30
2023-01-12T23:23:58.833Z,7.45
2023-01-12T23:26:28.202Z,7.53
2023-01-12T23:28:58.909Z,7.69
2023-01-12T23:31:27.694Z,7.77
2023-01-12T23:33:54.457Z,7.50
2023-01-12T23:36:23.660Z,7.27
2023-01-12T23:38:58.109Z,7.19
2023-01-12T23:41:25.701Z,7.22
2023-01-12T23:43:53.346Z,7.14
2023-01-12T23:46:19.869Z,7.05
2023-01-12T23:48:46.516Z,7.29
2023-01-12T23:51:13.995Z,7.29
2023-01-12T23:53:40.504Z,7.23
2023-01-12T23:56:14.273Z,7.32
2023-01-12T23:58:41.594Z,7.12
